sensor_id;sensor_type;location;lat;lon;timestamp;P1;durP1;ratioP1;P2;durP2;ratioP2
23802;SDS011;12082;51.786;6.018;2023-11-21T00:02:19;157.27;;;148.63;;
23802;SDS011;12082;51.786;6.018;2023-11-21T00:04:45;151.57;;;143.53;;
23802;SDS011;12082;51.786;6.018;2023-11-21T00:07:11;160.47;;;151.97;;
23802;SDS011;12082;51.786;6.018;2023-11-21T00:09:36;157.13;;;148.77;;
23802;SDS011;12082;51.786;6.018;2023-11-21T00:12:02;148.93;;;141.07;;
23802;SDS011;12082;51.786;6.018;2023-11-21T00:14:28;159.07;;;150.80;;
23802;SDS011;12082;51.786;6.018;2023-11-21T00:16:53;159.73;;;151.17;;
23802;SDS011;12082;51.786;6.018;2023-11-21T00:19:19;169.60;;;160.83;;
23802;SDS011;12082;51.786;6.018;2023-11-21T00:21:45;166.77;;;158.07;;
23802;SDS011;12082;51.786;6.018;2023-11-21T00:24:11;167.20;;;158.30;;
23802;SDS011;12082;51.786;6.018;2023-11-21T00:26:39;181.53;;;171.93;;
23802;SDS011;12082;51.786;6.018;2023-11-21T00:29:05;186.97;;;177.10;;
23802;SDS011;12082;51.786;6.018;2023-11-21T00:31:33;177.30;;;167.87;;
23802;SDS011;12082;51.786;6.018;2023-11-21T00:34:00;188.47;;;178.43;;
23802;SDS011;12082;51.786;6.018;2023-11-21T00:36:25;181.43;;;171.90;;
23802;SDS011;12082;51.786;6.018;2023-11-21T00:38:51;190.40;;;180.10;;
23802;SDS011;12082;51.786;6.018;2023-11-21T00:41:16;192.03;;;181.57;;
23802;SDS011;12082;51.786;6.018;2023-11-21T00:43:42;202.33;;;191.60;;
23802;SDS011;12082;51.786;6.018;2023-11-21T00:46:09;192.90;;;182.90;;
23802;SDS011;12082;51.786;6.018;2023-11-21T00:48:34;202.53;;;191.93;;
23802;SDS011;12082;51.786;6.018;2023-11-21T00:51:00;189.57;;;179.47;;
23802;SDS011;12082;51.786;6.018;2023-11-21T00:53:25;175.87;;;166.40;;
23802;SDS011;12082;51.786;6.018;2023-11-21T00:55:51;180.40;;;170.23;;
23802;SDS011;12082;51.786;6.018;2023-11-21T00:58:22;180.30;;;170.47;;
23802;SDS011;12082;51.786;6.018;2023-11-21T01:00:48;193.67;;;183.20;;
23802;SDS011;12082;51.786;6.018;2023-11-21T01:03:14;194.53;;;183.67;;
23802;SDS011;12082;51.786;6.018;2023-11-21T01:05:39;215.50;;;203.77;;
23802;SDS011;12082;51.786;6.018;2023-11-21T01:08:05;218.80;;;206.90;;
23802;SDS011;12082;51.786;6.018;2023-11-21T01:10:30;232.63;;;219.93;;
23802;SDS011;12082;51.786;6.018;2023-11-21T01:12:56;249.83;;;236.07;;
23802;SDS011;12082;51.786;6.018;2023-11-21T01:15:23;262.83;;;247.60;;
23802;SDS011;12082;51.786;6.018;2023-11-21T01:17:51;247.17;;;233.27;;
23802;SDS011;12082;51.786;6.018;2023-11-21T01:20:17;257.33;;;242.47;;
23802;SDS011;12082;51.786;6.018;2023-11-21T01:22:42;293.30;;;275.50;;
23802;SDS011;12082;51.786;6.018;2023-11-21T01:25:08;298.10;;;281.33;;
23802;SDS011;12082;51.786;6.018;2023-11-21T01:27:34;312.53;;;294.77;;
23802;SDS011;12082;51.786;6.018;2023-11-21T01:30:00;304.70;;;287.57;;
23802;SDS011;12082;51.786;6.018;2023-11-21T01:32:26;314.47;;;296.70;;
23802;SDS011;12082;51.786;6.018;2023-11-21T01:34:53;309.50;;;291.97;;
23802;SDS011;12082;51.786;6.018;2023-11-21T01:37:19;310.07;;;292.53;;
23802;SDS011;12082;51.786;6.018;2023-11-21T01:39:44;301.00;;;284.17;;
23802;SDS011;12082;51.786;6.018;2023-11-21T01:42:11;332.23;;;313.23;;
23802;SDS011;12082;51.786;6.018;2023-11-21T01:44:38;329.57;;;310.37;;
23802;SDS011;12082;51.786;6.018;2023-11-21T01:47:04;323.63;;;304.53;;
23802;SDS011;12082;51.786;6.018;2023-11-21T01:49:34;346.63;;;326.00;;
23802;SDS011;12082;51.786;6.018;2023-11-21T01:52:00;347.33;;;326.90;;
23802;SDS011;12082;51.786;6.018;2023-11-21T01:54:27;347.20;;;326.63;;
23802;SDS011;12082;51.786;6.018;2023-11-21T01:56:56;326.80;;;307.97;;
23802;SDS011;12082;51.786;6.018;2023-11-21T01:59:27;328.70;;;309.07;;
23802;SDS011;12082;51.786;6.018;2023-11-21T02:01:58;325.23;;;306.10;;
23802;SDS011;12082;51.786;6.018;2023-11-21T02:04:24;302.73;;;284.97;;
23802;SDS011;12082;51.786;6.018;2023-11-21T02:06:50;311.93;;;293.43;;
23802;SDS011;12082;51.786;6.018;2023-11-21T02:09:16;271.97;;;255.60;;
23802;SDS011;12082;51.786;6.018;2023-11-21T02:11:42;301.10;;;283.30;;
23802;SDS011;12082;51.786;6.018;2023-11-21T02:14:08;277.43;;;260.17;;
23802;SDS011;12082;51.786;6.018;2023-11-21T02:16:35;240.63;;;225.70;;
23802;SDS011;12082;51.786;6.018;2023-11-21T02:19:01;262.67;;;247.33;;
23802;SDS011;12082;51.786;6.018;2023-11-21T02:21:30;237.90;;;224.07;;
23802;SDS011;12082;51.786;6.018;2023-11-21T02:23:56;267.23;;;251.17;;
23802;SDS011;12082;51.786;6.018;2023-11-21T02:26:22;240.83;;;227.10;;
23802;SDS011;12082;51.786;6.018;2023-11-21T02:28:47;229.60;;;216.87;;
23802;SDS011;12082;51.786;6.018;2023-11-21T02:31:13;253.10;;;237.63;;
23802;SDS011;12082;51.786;6.018;2023-11-21T02:33:38;256.30;;;241.43;;
23802;SDS011;12082;51.786;6.018;2023-11-21T02:36:04;239.90;;;226.80;;
23802;SDS011;12082;51.786;6.018;2023-11-21T02:38:30;236.33;;;223.43;;
23802;SDS011;12082;51.786;6.018;2023-11-21T02:40:56;250.33;;;236.73;;
23802;SDS011;12082;51.786;6.018;2023-11-21T02:43:24;258.43;;;244.27;;
23802;SDS011;12082;51.786;6.018;2023-11-21T02:45:49;244.83;;;231.70;;
23802;SDS011;12082;51.786;6.018;2023-11-21T02:48:15;255.83;;;242.30;;
23802;SDS011;12082;51.786;6.018;2023-11-21T02:50:40;248.60;;;235.07;;
23802;SDS011;12082;51.786;6.018;2023-11-21T02:53:08;219.03;;;207.13;;
23802;SDS011;12082;51.786;6.018;2023-11-21T02:55:36;245.60;;;232.33;;
23802;SDS011;12082;51.786;6.018;2023-11-21T02:58:01;222.80;;;210.63;;
23802;SDS011;12082;51.786;6.018;2023-11-21T03:00:28;218.37;;;205.90;;
23802;SDS011;12082;51.786;6.018;2023-11-21T03:02:55;215.43;;;203.53;;
23802;SDS011;12082;51.786;6.018;2023-11-21T03:05:21;221.33;;;208.47;;
23802;SDS011;12082;51.786;6.018;2023-11-21T03:07:47;220.47;;;208.20;;
23802;SDS011;12082;51.786;6.018;2023-11-21T03:10:12;214.67;;;203.03;;
23802;SDS011;12082;51.786;6.018;2023-11-21T03:12:39;226.37;;;212.87;;
23802;SDS011;12082;51.786;6.018;2023-11-21T03:15:06;239.83;;;227.07;;
23802;SDS011;12082;51.786;6.018;2023-11-21T03:17:32;243.93;;;230.67;;
23802;SDS011;12082;51.786;6.018;2023-11-21T03:19:59;254.73;;;241.17;;
23802;SDS011;12082;51.786;6.018;2023-11-21T03:22:25;283.40;;;267.47;;
23802;SDS011;12082;51.786;6.018;2023-11-21T03:24:51;289.47;;;274.03;;
23802;SDS011;12082;51.786;6.018;2023-11-21T03:27:17;291.43;;;275.83;;
23802;SDS011;12082;51.786;6.018;2023-11-21T03:29:43;320.43;;;302.83;;
23802;SDS011;12082;51.786;6.018;2023-11-21T03:32:10;280.13;;;265.37;;
23802;SDS011;12082;51.786;6.018;2023-11-21T03:34:41;289.53;;;273.93;;
23802;SDS011;12082;51.786;6.018;2023-11-21T03:37:21;275.80;;;261.30;;
23802;SDS011;12082;51.786;6.018;2023-11-21T03:39:47;263.60;;;249.70;;
23802;SDS011;12082;51.786;6.018;2023-11-21T03:42:13;235.60;;;223.07;;
23802;SDS011;12082;51.786;6.018;2023-11-21T03:44:38;265.00;;;250.90;;
23802;SDS011;12082;51.786;6.018;2023-11-21T03:47:04;269.77;;;255.33;;
23802;SDS011;12082;51.786;6.018;2023-11-21T03:49:30;244.77;;;231.33;;
23802;SDS011;12082;51.786;6.018;2023-11-21T03:51:56;241.20;;;228.37;;
23802;SDS011;12082;51.786;6.018;2023-11-21T03:54:21;252.00;;;238.40;;
23802;SDS011;12082;51.786;6.018;2023-11-21T03:56:47;255.83;;;242.37;;
23802;SDS011;12082;51.786;6.018;2023-11-21T03:59:12;267.57;;;253.20;;
23802;SDS011;12082;51.786;6.018;2023-11-21T04:01:38;265.33;;;250.80;;
23802;SDS011;12082;51.786;6.018;2023-11-21T04:04:04;298.43;;;282.13;;
23802;SDS011;12082;51.786;6.018;2023-11-21T04:06:29;297.67;;;281.43;;
23802;SDS011;12082;51.786;6.018;2023-11-21T04:08:55;305.40;;;288.97;;
23802;SDS011;12082;51.786;6.018;2023-11-21T04:11:20;292.97;;;277.00;;
23802;SDS011;12082;51.786;6.018;2023-11-21T04:13:46;299.73;;;283.37;;
23802;SDS011;12082;51.786;6.018;2023-11-21T04:16:12;284.90;;;268.90;;
23802;SDS011;12082;51.786;6.018;2023-11-21T04:18:38;261.27;;;247.20;;
23802;SDS011;12082;51.786;6.018;2023-11-21T04:21:04;275.60;;;260.07;;
23802;SDS011;12082;51.786;6.018;2023-11-21T04:23:30;228.50;;;216.00;;
23802;SDS011;12082;51.786;6.018;2023-11-21T04:25:57;201.67;;;190.70;;
23802;SDS011;12082;51.786;6.018;2023-11-21T04:28:23;227.33;;;214.60;;
23802;SDS011;12082;51.786;6.018;2023-11-21T04:30:49;262.97;;;248.33;;
23802;SDS011;12082;51.786;6.018;2023-11-21T04:33:15;286.43;;;271.00;;
23802;SDS011;12082;51.786;6.018;2023-11-21T04:35:41;281.53;;;266.37;;
23802;SDS011;12082;51.786;6.018;2023-11-21T04:38:06;303.37;;;286.77;;
23802;SDS011;12082;51.786;6.018;2023-11-21T04:40:32;271.23;;;256.83;;
23802;SDS011;12082;51.786;6.018;2023-11-21T04:42:58;249.57;;;236.50;;
23802;SDS011;12082;51.786;6.018;2023-11-21T04:45:23;251.37;;;237.93;;
23802;SDS011;12082;51.786;6.018;2023-11-21T04:47:49;266.03;;;251.50;;
23802;SDS011;12082;51.786;6.018;2023-11-21T04:50:14;249.43;;;236.43;;
23802;SDS011;12082;51.786;6.018;2023-11-21T04:52:40;205.03;;;193.40;;
23802;SDS011;12082;51.786;6.018;2023-11-21T04:55:06;186.13;;;175.97;;
23802;SDS011;12082;51.786;6.018;2023-11-21T04:57:35;197.60;;;187.33;;
23802;SDS011;12082;51.786;6.018;2023-11-21T05:00:01;225.33;;;213.67;;
23802;SDS011;12082;51.786;6.018;2023-11-21T05:02:30;220.13;;;208.70;;
23802;SDS011;12082;51.786;6.018;2023-11-21T05:04:56;225.20;;;213.50;;
23802;SDS011;12082;51.786;6.018;2023-11-21T05:07:23;190.40;;;179.20;;
23802;SDS011;12082;51.786;6.018;2023-11-21T05:09:48;178.00;;;168.77;;
23802;SDS011;12082;51.786;6.018;2023-11-21T05:12:15;172.27;;;163.53;;
23802;SDS011;12082;51.786;6.018;2023-11-21T05:14:40;146.80;;;139.40;;
23802;SDS011;12082;51.786;6.018;2023-11-21T05:17:07;133.83;;;126.97;;
23802;SDS011;12082;51.786;6.018;2023-11-21T05:19:33;139.17;;;131.83;;
23802;SDS011;12082;51.786;6.018;2023-11-21T05:22:00;165.83;;;156.13;;
23802;SDS011;12082;51.786;6.018;2023-11-21T05:24:26;183.23;;;173.93;;
23802;SDS011;12082;51.786;6.018;2023-11-21T05:26:52;195.67;;;185.93;;
23802;SDS011;12082;51.786;6.018;2023-11-21T05:29:17;214.00;;;203.53;;
23802;SDS011;12082;51.786;6.018;2023-11-21T05:31:43;226.23;;;214.77;;
23802;SDS011;12082;51.786;6.018;2023-11-21T05:34:09;228.70;;;217.33;;
23802;SDS011;12082;51.786;6.018;2023-11-21T05:36:34;235.40;;;223.47;;
23802;SDS011;12082;51.786;6.018;2023-11-21T05:39:00;239.27;;;227.33;;
23802;SDS011;12082;51.786;6.018;2023-11-21T05:41:25;220.37;;;209.27;;
23802;SDS011;12082;51.786;6.018;2023-11-21T05:43:51;218.43;;;207.57;;
23802;SDS011;12082;51.786;6.018;2023-11-21T05:46:16;225.37;;;213.57;;
23802;SDS011;12082;51.786;6.018;2023-11-21T05:48:43;219.73;;;208.80;;
23802;SDS011;12082;51.786;6.018;2023-11-21T05:51:08;225.10;;;213.93;;
23802;SDS011;12082;51.786;6.018;2023-11-21T05:53:34;215.60;;;204.67;;
23802;SDS011;12082;51.786;6.018;2023-11-21T05:55:59;185.17;;;175.73;;
23802;SDS011;12082;51.786;6.018;2023-11-21T05:58:25;166.17;;;157.80;;
23802;SDS011;12082;51.786;6.018;2023-11-21T06:00:51;136.50;;;129.40;;
23802;SDS011;12082;51.786;6.018;2023-11-21T06:03:16;135.37;;;128.40;;
23802;SDS011;12082;51.786;6.018;2023-11-21T06:05:42;129.23;;;122.67;;
23802;SDS011;12082;51.786;6.018;2023-11-21T06:08:08;128.33;;;121.80;;
23802;SDS011;12082;51.786;6.018;2023-11-21T06:10:34;129.83;;;123.27;;
23802;SDS011;12082;51.786;6.018;2023-11-21T06:12:59;120.93;;;114.07;;
23802;SDS011;12082;51.786;6.018;2023-11-21T06:15:25;108.27;;;102.53;;
23802;SDS011;12082;51.786;6.018;2023-11-21T06:17:50;137.40;;;130.33;;
23802;SDS011;12082;51.786;6.018;2023-11-21T06:20:19;142.33;;;134.90;;
23802;SDS011;12082;51.786;6.018;2023-11-21T06:22:48;181.63;;;172.23;;
23802;SDS011;12082;51.786;6.018;2023-11-21T06:25:15;207.37;;;196.67;;
23802;SDS011;12082;51.786;6.018;2023-11-21T06:27:41;258.50;;;245.17;;
23802;SDS011;12082;51.786;6.018;2023-11-21T06:30:09;289.77;;;274.67;;
23802;SDS011;12082;51.786;6.018;2023-11-21T06:32:37;309.03;;;292.50;;
23802;SDS011;12082;51.786;6.018;2023-11-21T06:35:04;279.90;;;265.33;;
23802;SDS011;12082;51.786;6.018;2023-11-21T06:37:31;288.13;;;272.67;;
23802;SDS011;12082;51.786;6.018;2023-11-21T06:39:57;283.33;;;268.57;;
23802;SDS011;12082;51.786;6.018;2023-11-21T06:42:24;293.60;;;278.23;;
23802;SDS011;12082;51.786;6.018;2023-11-21T06:44:50;295.27;;;279.57;;
23802;SDS011;12082;51.786;6.018;2023-11-21T06:47:19;275.53;;;261.07;;
23802;SDS011;12082;51.786;6.018;2023-11-21T06:49:45;265.00;;;251.23;;
23802;SDS011;12082;51.786;6.018;2023-11-21T06:52:14;226.17;;;214.33;;
23802;SDS011;12082;51.786;6.018;2023-11-21T06:54:39;212.30;;;201.00;;
23802;SDS011;12082;51.786;6.018;2023-11-21T06:57:05;179.20;;;169.67;;
23802;SDS011;12082;51.786;6.018;2023-11-21T06:59:30;149.30;;;141.57;;
23802;SDS011;12082;51.786;6.018;2023-11-21T07:01:56;127.20;;;120.40;;
23802;SDS011;12082;51.786;6.018;2023-11-21T07:04:22;119.90;;;113.80;;
23802;SDS011;12082;51.786;6.018;2023-11-21T07:06:48;135.77;;;128.93;;
23802;SDS011;12082;51.786;6.018;2023-11-21T07:09:13;166.60;;;158.10;;
23802;SDS011;12082;51.786;6.018;2023-11-21T07:11:40;166.10;;;156.30;;
23802;SDS011;12082;51.786;6.018;2023-11-21T07:14:06;179.90;;;170.60;;
23802;SDS011;12082;51.786;6.018;2023-11-21T07:16:35;186.87;;;177.33;;
23802;SDS011;12082;51.786;6.018;2023-11-21T07:19:03;183.40;;;173.83;;
23802;SDS011;12082;51.786;6.018;2023-11-21T07:21:31;180.63;;;171.40;;
23802;SDS011;12082;51.786;6.018;2023-11-21T07:23:57;163.80;;;155.50;;
23802;SDS011;12082;51.786;6.018;2023-11-21T07:26:22;166.73;;;155.67;;
23802;SDS011;12082;51.786;6.018;2023-11-21T07:28:49;161.77;;;153.67;;
23802;SDS011;12082;51.786;6.018;2023-11-21T07:31:15;154.37;;;146.43;;
23802;SDS011;12082;51.786;6.018;2023-11-21T07:33:40;170.50;;;161.90;;
23802;SDS011;12082;51.786;6.018;2023-11-21T07:36:06;167.80;;;159.43;;
23802;SDS011;12082;51.786;6.018;2023-11-21T07:38:32;171.33;;;162.63;;
23802;SDS011;12082;51.786;6.018;2023-11-21T07:40:58;167.67;;;159.27;;
23802;SDS011;12082;51.786;6.018;2023-11-21T07:43:26;165.30;;;156.80;;
23802;SDS011;12082;51.786;6.018;2023-11-21T07:45:52;168.23;;;159.43;;
23802;SDS011;12082;51.786;6.018;2023-11-21T07:48:17;168.50;;;159.57;;
23802;SDS011;12082;51.786;6.018;2023-11-21T07:50:43;166.13;;;157.67;;
23802;SDS011;12082;51.786;6.018;2023-11-21T07:53:08;162.30;;;153.93;;
23802;SDS011;12082;51.786;6.018;2023-11-21T07:55:34;165.90;;;157.47;;
23802;SDS011;12082;51.786;6.018;2023-11-21T07:58:01;174.90;;;165.97;;
23802;SDS011;12082;51.786;6.018;2023-11-21T08:00:26;171.23;;;162.57;;
23802;SDS011;12082;51.786;6.018;2023-11-21T08:02:55;170.10;;;161.23;;
23802;SDS011;12082;51.786;6.018;2023-11-21T08:05:20;160.07;;;151.90;;
23802;SDS011;12082;51.786;6.018;2023-11-21T08:07:46;146.10;;;138.37;;
23802;SDS011;12082;51.786;6.018;2023-11-21T08:10:12;135.03;;;128.07;;
23802;SDS011;12082;51.786;6.018;2023-11-21T08:12:37;103.10;;;97.67;;
23802;SDS011;12082;51.786;6.018;2023-11-21T08:15:03;126.90;;;120.57;;
23802;SDS011;12082;51.786;6.018;2023-11-21T08:17:30;165.17;;;156.77;;
23802;SDS011;12082;51.786;6.018;2023-11-21T08:19:57;221.90;;;208.67;;
23802;SDS011;12082;51.786;6.018;2023-11-21T08:22:23;280.70;;;266.43;;
23802;SDS011;12082;51.786;6.018;2023-11-21T08:24:50;210.07;;;199.17;;
23802;SDS011;12082;51.786;6.018;2023-11-21T08:27:15;149.67;;;141.37;;
23802;SDS011;12082;51.786;6.018;2023-11-21T08:29:41;142.93;;;135.13;;
23802;SDS011;12082;51.786;6.018;2023-11-21T08:32:07;140.97;;;133.00;;
23802;SDS011;12082;51.786;6.018;2023-11-21T08:34:33;135.10;;;125.93;;
23802;SDS011;12082;51.786;6.018;2023-11-21T08:36:58;124.00;;;117.53;;
23802;SDS011;12082;51.786;6.018;2023-11-21T08:39:24;114.53;;;108.60;;
23802;SDS011;12082;51.786;6.018;2023-11-21T08:41:52;123.63;;;117.30;;
23802;SDS011;12082;51.786;6.018;2023-11-21T08:44:17;120.70;;;114.63;;
23802;SDS011;12082;51.786;6.018;2023-11-21T08:46:43;138.07;;;131.10;;
23802;SDS011;12082;51.786;6.018;2023-11-21T08:49:12;153.73;;;145.77;;
23802;SDS011;12082;51.786;6.018;2023-11-21T08:51:38;184.70;;;174.70;;
23802;SDS011;12082;51.786;6.018;2023-11-21T08:54:04;207.70;;;197.37;;
23802;SDS011;12082;51.786;6.018;2023-11-21T08:56:33;233.80;;;222.30;;
23802;SDS011;12082;51.786;6.018;2023-11-21T08:58:59;224.27;;;213.07;;
23802;SDS011;12082;51.786;6.018;2023-11-21T09:01:27;245.93;;;233.90;;
23802;SDS011;12082;51.786;6.018;2023-11-21T09:03:53;238.77;;;227.03;;
23802;SDS011;12082;51.786;6.018;2023-11-21T09:06:18;223.87;;;212.70;;
23802;SDS011;12082;51.786;6.018;2023-11-21T09:08:44;214.53;;;204.20;;
23802;SDS011;12082;51.786;6.018;2023-11-21T09:11:10;202.97;;;193.13;;
23802;SDS011;12082;51.786;6.018;2023-11-21T09:13:35;179.47;;;170.47;;
23802;SDS011;12082;51.786;6.018;2023-11-21T09:16:01;154.60;;;146.73;;
23802;SDS011;12082;51.786;6.018;2023-11-21T09:18:27;129.07;;;122.47;;
23802;SDS011;12082;51.786;6.018;2023-11-21T09:20:52;131.03;;;124.27;;
23802;SDS011;12082;51.786;6.018;2023-11-21T09:23:18;117.90;;;111.40;;
23802;SDS011;12082;51.786;6.018;2023-11-21T09:25:43;124.80;;;117.27;;
23802;SDS011;12082;51.786;6.018;2023-11-21T09:28:11;125.30;;;118.50;;
23802;SDS011;12082;51.786;6.018;2023-11-21T09:30:37;115.37;;;108.97;;
23802;SDS011;12082;51.786;6.018;2023-11-21T09:33:03;99.00;;;94.03;;
23802;SDS011;12082;51.786;6.018;2023-11-21T09:35:32;97.63;;;92.83;;
23802;SDS011;12082;51.786;6.018;2023-11-21T09:37:57;93.47;;;88.87;;
23802;SDS011;12082;51.786;6.018;2023-11-21T09:40:23;94.30;;;88.70;;
23802;SDS011;12082;51.786;6.018;2023-11-21T09:42:52;94.17;;;89.23;;
23802;SDS011;12082;51.786;6.018;2023-11-21T09:45:27;93.27;;;88.63;;
23802;SDS011;12082;51.786;6.018;2023-11-21T09:47:54;89.50;;;85.20;;
23802;SDS011;12082;51.786;6.018;2023-11-21T09:50:21;91.83;;;87.07;;
23802;SDS011;12082;51.786;6.018;2023-11-21T09:52:58;99.77;;;94.63;;
23802;SDS011;12082;51.786;6.018;2023-11-21T09:55:35;101.27;;;95.93;;
23802;SDS011;12082;51.786;6.018;2023-11-21T09:58:03;95.50;;;90.87;;
23802;SDS011;12082;51.786;6.018;2023-11-21T10:00:33;100.77;;;95.83;;
23802;SDS011;12082;51.786;6.018;2023-11-21T10:02:59;103.30;;;98.23;;
23802;SDS011;12082;51.786;6.018;2023-11-21T10:05:25;104.27;;;99.17;;
23802;SDS011;12082;51.786;6.018;2023-11-21T10:07:51;108.23;;;102.93;;
23802;SDS011;12082;51.786;6.018;2023-11-21T10:10:20;114.73;;;109.13;;
23802;SDS011;12082;51.786;6.018;2023-11-21T10:12:49;120.00;;;114.10;;
23802;SDS011;12082;51.786;6.018;2023-11-21T10:15:21;118.60;;;112.63;;
23802;SDS011;12082;51.786;6.018;2023-11-21T10:17:48;122.80;;;115.90;;
23802;SDS011;12082;51.786;6.018;2023-11-21T10:20:14;123.97;;;117.83;;
23802;SDS011;12082;51.786;6.018;2023-11-21T10:22:41;136.03;;;129.20;;
23802;SDS011;12082;51.786;6.018;2023-11-21T10:25:08;133.13;;;126.53;;
23802;SDS011;12082;51.786;6.018;2023-11-21T10:27:35;109.57;;;104.20;;
23802;SDS011;12082;51.786;6.018;2023-11-21T10:30:02;111.43;;;105.97;;
23802;SDS011;12082;51.786;6.018;2023-11-21T10:32:29;101.47;;;96.50;;
23802;SDS011;12082;51.786;6.018;2023-11-21T10:35:00;103.63;;;98.57;;
23802;SDS011;12082;51.786;6.018;2023-11-21T10:37:31;104.43;;;99.33;;
23802;SDS011;12082;51.786;6.018;2023-11-21T10:39:59;97.63;;;92.80;;
23802;SDS011;12082;51.786;6.018;2023-11-21T10:42:25;100.47;;;95.07;;
23802;SDS011;12082;51.786;6.018;2023-11-21T10:44:52;98.37;;;93.57;;
23802;SDS011;12082;51.786;6.018;2023-11-21T10:47:19;97.80;;;92.83;;
23802;SDS011;12082;51.786;6.018;2023-11-21T10:49:45;86.10;;;81.87;;
23802;SDS011;12082;51.786;6.018;2023-11-21T10:52:13;90.90;;;86.17;;
23802;SDS011;12082;51.786;6.018;2023-11-21T10:54:42;92.27;;;87.63;;
23802;SDS011;12082;51.786;6.018;2023-11-21T10:57:08;81.93;;;77.87;;
23802;SDS011;12082;51.786;6.018;2023-11-21T10:59:36;93.47;;;88.77;;
23802;SDS011;12082;51.786;6.018;2023-11-21T11:02:04;103.17;;;97.93;;
23802;SDS011;12082;51.786;6.018;2023-11-21T11:04:41;104.07;;;98.83;;
23802;SDS011;12082;51.786;6.018;2023-11-21T11:07:07;112.33;;;105.93;;
23802;SDS011;12082;51.786;6.018;2023-11-21T11:09:37;117.70;;;111.33;;
23802;SDS011;12082;51.786;6.018;2023-11-21T11:12:02;118.57;;;112.53;;
23802;SDS011;12082;51.786;6.018;2023-11-21T11:14:29;112.60;;;106.37;;
23802;SDS011;12082;51.786;6.018;2023-11-21T11:16:57;97.57;;;92.47;;
23802;SDS011;12082;51.786;6.018;2023-11-21T11:19:24;102.27;;;97.07;;
23802;SDS011;12082;51.786;6.018;2023-11-21T11:25:03;110.43;;;105.13;;
23802;SDS011;12082;51.786;6.018;2023-11-21T11:27:39;102.73;;;97.70;;
23802;SDS011;12082;51.786;6.018;2023-11-21T11:30:26;113.50;;;107.17;;
23802;SDS011;12082;51.786;6.018;2023-11-21T11:36:10;133.00;;;126.47;;
23802;SDS011;12082;51.786;6.018;2023-11-21T11:38:54;129.93;;;123.57;;
23802;SDS011;12082;51.786;6.018;2023-11-21T11:41:29;131.77;;;125.23;;
23802;SDS011;12082;51.786;6.018;2023-11-21T11:43:58;132.30;;;125.63;;
23802;SDS011;12082;51.786;6.018;2023-11-21T11:46:41;132.67;;;125.77;;
23802;SDS011;12082;51.786;6.018;2023-11-21T11:49:08;124.90;;;118.90;;
23802;SDS011;12082;51.786;6.018;2023-11-21T11:51:33;124.73;;;117.87;;
23802;SDS011;12082;51.786;6.018;2023-11-21T11:54:00;123.00;;;117.17;;
23802;SDS011;12082;51.786;6.018;2023-11-21T11:56:28;131.67;;;123.23;;
23802;SDS011;12082;51.786;6.018;2023-11-21T11:58:57;134.63;;;128.13;;
23802;SDS011;12082;51.786;6.018;2023-11-21T12:01:25;136.73;;;128.43;;
23802;SDS011;12082;51.786;6.018;2023-11-21T12:06:39;122.00;;;116.17;;
23802;SDS011;12082;51.786;6.018;2023-11-21T12:09:06;130.13;;;123.73;;
23802;SDS011;12082;51.786;6.018;2023-11-21T12:11:32;121.67;;;115.50;;
23802;SDS011;12082;51.786;6.018;2023-11-21T12:14:00;119.73;;;113.47;;
23802;SDS011;12082;51.786;6.018;2023-11-21T12:16:27;111.77;;;106.23;;
23802;SDS011;12082;51.786;6.018;2023-11-21T12:18:53;104.93;;;99.67;;
23802;SDS011;12082;51.786;6.018;2023-11-21T12:21:19;106.50;;;101.30;;
23802;SDS011;12082;51.786;6.018;2023-11-21T12:23:45;103.67;;;98.57;;
23802;SDS011;12082;51.786;6.018;2023-11-21T12:26:14;112.40;;;106.83;;
23802;SDS011;12082;51.786;6.018;2023-11-21T12:28:40;113.43;;;107.80;;
23802;SDS011;12082;51.786;6.018;2023-11-21T12:31:05;109.57;;;104.10;;
23802;SDS011;12082;51.786;6.018;2023-11-21T12:33:32;108.47;;;102.60;;
23802;SDS011;12082;51.786;6.018;2023-11-21T12:35:58;104.90;;;99.50;;
23802;SDS011;12082;51.786;6.018;2023-11-21T12:38:24;107.83;;;102.13;;
23802;SDS011;12082;51.786;6.018;2023-11-21T12:40:50;120.43;;;114.47;;
23802;SDS011;12082;51.786;6.018;2023-11-21T12:43:16;122.60;;;115.93;;
23802;SDS011;12082;51.786;6.018;2023-11-21T12:45:43;128.97;;;122.50;;
23802;SDS011;12082;51.786;6.018;2023-11-21T12:48:09;119.20;;;113.37;;
23802;SDS011;12082;51.786;6.018;2023-11-21T12:50:37;112.43;;;106.87;;
23802;SDS011;12082;51.786;6.018;2023-11-21T12:53:04;110.90;;;105.43;;
23802;SDS011;12082;51.786;6.018;2023-11-21T12:55:34;113.37;;;107.80;;
23802;SDS011;12082;51.786;6.018;2023-11-21T12:58:03;120.80;;;114.90;;
23802;SDS011;12082;51.786;6.018;2023-11-21T13:00:37;109.33;;;104.03;;
23802;SDS011;12082;51.786;6.018;2023-11-21T13:03:08;89.33;;;84.97;;
23802;SDS011;12082;51.786;6.018;2023-11-21T13:05:37;86.13;;;81.80;;
23802;SDS011;12082;51.786;6.018;2023-11-21T13:08:08;89.67;;;85.37;;
23802;SDS011;12082;51.786;6.018;2023-11-21T13:10:38;88.40;;;84.17;;
23802;SDS011;12082;51.786;6.018;2023-11-21T13:13:06;98.87;;;93.50;;
23802;SDS011;12082;51.786;6.018;2023-11-21T13:15:33;104.30;;;99.20;;
23802;SDS011;12082;51.786;6.018;2023-11-21T13:18:03;116.17;;;110.50;;
23802;SDS011;12082;51.786;6.018;2023-11-21T13:20:29;123.73;;;117.33;;
23802;SDS011;12082;51.786;6.018;2023-11-21T13:22:56;120.03;;;114.40;;
23802;SDS011;12082;51.786;6.018;2023-11-21T13:25:28;116.93;;;111.00;;
23802;SDS011;12082;51.786;6.018;2023-11-21T13:27:56;125.03;;;118.83;;
23802;SDS011;12082;51.786;6.018;2023-11-21T13:30:22;111.37;;;105.97;;
23802;SDS011;12082;51.786;6.018;2023-11-21T13:32:53;108.70;;;103.47;;
23802;SDS011;12082;51.786;6.018;2023-11-21T13:35:22;104.37;;;99.40;;
23802;SDS011;12082;51.786;6.018;2023-11-21T13:40:37;100.00;;;95.27;;
23802;SDS011;12082;51.786;6.018;2023-11-21T13:43:16;100.73;;;95.53;;
23802;SDS011;12082;51.786;6.018;2023-11-21T13:45:46;90.17;;;85.83;;
23802;SDS011;12082;51.786;6.018;2023-11-21T13:48:13;87.43;;;83.20;;
23802;SDS011;12082;51.786;6.018;2023-11-21T13:50:45;87.10;;;82.90;;
23802;SDS011;12082;51.786;6.018;2023-11-21T13:53:23;83.60;;;79.60;;
23802;SDS011;12082;51.786;6.018;2023-11-21T13:55:51;81.57;;;77.53;;
23802;SDS011;12082;51.786;6.018;2023-11-21T13:58:23;84.97;;;79.93;;
23802;SDS011;12082;51.786;6.018;2023-11-21T14:01:06;84.90;;;80.87;;
23802;SDS011;12082;51.786;6.018;2023-11-21T14:03:41;90.93;;;86.57;;
23802;SDS011;12082;51.786;6.018;2023-11-21T14:06:17;96.43;;;91.83;;
23802;SDS011;12082;51.786;6.018;2023-11-21T14:08:49;104.13;;;99.03;;
23802;SDS011;12082;51.786;6.018;2023-11-21T14:11:15;102.80;;;97.90;;